createdAt,value
2019-03-22T00:01:45.744Z,1034.7
2019-03-22T00:06:45.663Z,1034.7
2019-03-22T00:11:45.703Z,1034.6
2019-03-22T00:16:45.571Z,1034.7
2019-03-22T00:21:45.568Z,1034.7
2019-03-22T00:26:45.711Z,1034.7
2019-03-22T00:31:45.685Z,1034.6
2019-03-22T00:36:45.567Z,1034.6
2019-03-22T00:41:45.993Z,1034.7
2019-03-22T00:46:45.763Z,1034.7
2019-03-22T00:51:45.580Z,1034.6
2019-03-22T00:56:45.603Z,1034.5
2019-03-22T01:01:45.576Z,1034.5
2019-03-22T01:06:45.579Z,1034.6
2019-03-22T01:11:45.826Z,1034.6
2019-03-22T01:16:45.750Z,1034.6
2019-03-22T01:21:45.570Z,1034.5
2019-03-22T01:26:45.594Z,1034.5
2019-03-22T01:31:45.730Z,1034.4
2019-03-22T01:36:45.793Z,1034.4
2019-03-22T01:41:45.778Z,1034.4
2019-03-22T01:46:45.609Z,1034.4
2019-03-22T01:51:45.582Z,1034.4
2019-03-22T01:56:45.623Z,1034.4
2019-03-22T02:01:45.609Z,1034.4
2019-03-22T02:06:45.782Z,1034.5
2019-03-22T02:11:45.631Z,1034.4
2019-03-22T02:16:45.718Z,1034.4
2019-03-22T02:21:45.767Z,1034.4
2019-03-22T02:26:45.754Z,1034.4
2019-03-22T02:31:45.796Z,1034.4
2019-03-22T02:36:45.794Z,1034.4
2019-03-22T02:41:45.861Z,1034.3
2019-03-22T02:46:45.875Z,1034.3
2019-03-22T02:51:45.802Z,1034.3
2019-03-22T02:56:45.646Z,1034.3
2019-03-22T03:01:45.661Z,1034.4
2019-03-22T03:06:45.791Z,1034.4
2019-03-22T03:11:45.824Z,1034.4
2019-03-22T03:16:45.653Z,1034.4
2019-03-22T03:21:45.645Z,1034.4
2019-03-22T03:26:45.839Z,1034.4
2019-03-22T03:31:45.699Z,1034.5
2019-03-22T03:36:45.719Z,1034.5
2019-03-22T03:41:45.805Z,1034.4
2019-03-22T03:46:45.849Z,1034.3
2019-03-22T03:51:45.693Z,1034.2
2019-03-22T03:56:45.807Z,1034.4
2019-03-22T04:01:45.632Z,1034.4
2019-03-22T04:06:45.798Z,1034.3
2019-03-22T04:11:45.822Z,1034.2
2019-03-22T04:16:45.845Z,1034.3
2019-03-22T04:21:45.709Z,1034.3
2019-03-22T04:26:45.938Z,1034.3
2019-03-22T04:31:45.719Z,1034.3
2019-03-22T04:36:45.694Z,1034.3
2019-03-22T04:41:45.716Z,1034.4
2019-03-22T04:46:45.841Z,1034.5
2019-03-22T04:51:45.698Z,1034.6
2019-03-22T04:56:45.704Z,1034.7
2019-03-22T05:01:45.861Z,1034.7
2019-03-22T05:06:45.837Z,1034.8
2019-03-22T05:11:46.425Z,1034.7
2019-03-22T05:16:45.857Z,1034.7
2019-03-22T05:21:45.887Z,1034.8
2019-03-22T05:26:45.773Z,1034.8
2019-03-22T05:31:45.976Z,1034.8
2019-03-22T05:36:45.877Z,1034.8
2019-03-22T05:41:45.735Z,1034.9
2019-03-22T05:46:45.724Z,1034.8
2019-03-22T05:51:45.730Z,1034.8
2019-03-22T05:56:45.726Z,1034.7
2019-03-22T06:01:45.923Z,1034.7
2019-03-22T06:06:45.762Z,1034.7
2019-03-22T06:11:45.789Z,1034.7
2019-03-22T06:16:45.789Z,1034.6
2019-03-22T06:21:45.757Z,1034.6
2019-03-22T06:26:45.735Z,1034.6
2019-03-22T06:31:45.751Z,1034.5
2019-03-22T06:36:45.743Z,1034.5
2019-03-22T06:41:45.746Z,1034.5
2019-03-22T06:46:45.755Z,1034.5
2019-03-22T06:51:45.797Z,1034.3
2019-03-22T06:56:45.799Z,1034.2
2019-03-22T07:01:45.723Z,1034.1
2019-03-22T07:06:45.771Z,1034
2019-03-22T07:11:45.801Z,1034
2019-03-22T07:16:45.766Z,1033.9
2019-03-22T07:21:45.790Z,1033.7
2019-03-22T07:26:45.774Z,1033.7
2019-03-22T07:31:45.786Z,1033.7
2019-03-22T07:36:47.414Z,1033.5
2019-03-22T07:41:45.796Z,1033.4
2019-03-22T07:46:45.798Z,1033.2
2019-03-22T07:51:45.824Z,1033.1
2019-03-22T07:56:45.806Z,1033
2019-03-22T08:01:45.821Z,1032.9
2019-03-22T08:06:45.800Z,1032.7
2019-03-22T08:11:45.814Z,1032.6
2019-03-22T08:16:45.811Z,1032.6
2019-03-22T08:21:46.071Z,1032.6
2019-03-22T08:26:45.858Z,1032.4
2019-03-22T08:31:45.920Z,1032.5
2019-03-22T08:36:45.841Z,1032.2
2019-03-22T08:41:46.886Z,1032.3
2019-03-22T08:46:45.811Z,1032.4
2019-03-22T08:51:45.806Z,1032.1
2019-03-22T08:56:45.894Z,1032.2
2019-03-22T09:01:45.888Z,1032.2
2019-03-22T09:06:45.873Z,1032
2019-03-22T09:11:46.013Z,1032
2019-03-22T09:16:46.895Z,1031.9
2019-03-22T09:21:45.897Z,1031.8
2019-03-22T09:26:48.424Z,1031.8
2019-03-22T09:31:45.936Z,1031.8
2019-03-22T09:36:45.985Z,1031.8
2019-03-22T09:41:45.934Z,1031.7
2019-03-22T09:46:45.909Z,1031.7
2019-03-22T09:51:45.957Z,1031.6
2019-03-22T09:56:47.878Z,1031.5
2019-03-22T10:01:45.985Z,1031.6
2019-03-22T10:06:45.946Z,1031.5
2019-03-22T10:11:46.962Z,1031.3
2019-03-22T10:16:48.131Z,1031.2
2019-03-22T10:21:45.946Z,1031.3
2019-03-22T10:26:46.008Z,1031.1
2019-03-22T10:31:45.876Z,1031
2019-03-22T10:36:47.363Z,1031
2019-03-22T10:41:46.165Z,1031.1
2019-03-22T10:46:45.827Z,1031
2019-03-22T10:51:58.469Z,1030.8
2019-03-22T10:56:46.033Z,1030.8
2019-03-22T11:02:06.332Z,1030.6
2019-03-22T11:06:46.118Z,1030.7
2019-03-22T11:11:46.405Z,1030.6
2019-03-22T11:16:46.074Z,1030.6
2019-03-22T11:21:45.895Z,1030.5
2019-03-22T11:26:45.913Z,1030.5
2019-03-22T11:31:45.897Z,1030.4
2019-03-22T11:36:46.129Z,1030.4
2019-03-22T11:41:46.037Z,1030.3
2019-03-22T11:46:46.037Z,1030.3
2019-03-22T11:51:46.125Z,1030.3
2019-03-22T11:56:55.699Z,1030.3
2019-03-22T12:01:55.476Z,1030.2
2019-03-22T12:06:55.662Z,1030
2019-03-22T12:11:55.486Z,1030
2019-03-22T12:16:57.014Z,1029.8
2019-03-22T12:21:55.663Z,1029.8
2019-03-22T12:26:55.464Z,1029.8
2019-03-22T12:31:55.476Z,1029.7
2019-03-22T12:36:55.486Z,1029.6
2019-03-22T12:41:55.688Z,1029.6
2019-03-22T12:46:55.618Z,1029.5
2019-03-22T12:51:55.473Z,1029.6
2019-03-22T12:56:55.687Z,1029.3
2019-03-22T13:01:55.740Z,1029.3
2019-03-22T13:06:55.586Z,1029.2
2019-03-22T13:11:55.480Z,1029.2
2019-03-22T13:16:55.490Z,1029.3
2019-03-22T13:21:55.475Z,1029.1
2019-03-22T13:26:55.495Z,1029.1
2019-03-22T13:31:55.490Z,1029.1
2019-03-22T13:36:55.529Z,1029
2019-03-22T13:41:55.510Z,1028.9
2019-03-22T13:46:55.505Z,1028.9
2019-03-22T13:51:55.539Z,1028.9
2019-03-22T13:56:55.600Z,1028.8
2019-03-22T14:01:55.791Z,1028.8
2019-03-22T14:06:55.519Z,1028.7
2019-03-22T14:11:55.506Z,1028.7
2019-03-22T14:16:55.525Z,1028.7
2019-03-22T14:21:55.544Z,1028.7
2019-03-22T14:26:55.534Z,1028.6
2019-03-22T14:31:55.544Z,1028.6
2019-03-22T14:36:55.556Z,1028.6
2019-03-22T14:41:55.550Z,1028.5
2019-03-22T14:46:55.559Z,1028.5
2019-03-22T14:51:55.540Z,1028.6
2019-03-22T14:56:55.574Z,1028.5
2019-03-22T15:01:55.573Z,1028.4
2019-03-22T15:06:55.510Z,1028.5
2019-03-22T15:11:55.555Z,1028.5
2019-03-22T15:16:55.549Z,1028.4
2019-03-22T15:21:55.559Z,1028.3
2019-03-22T15:26:55.555Z,1028.3
2019-03-22T15:31:55.597Z,1028.4
2019-03-22T15:36:58.575Z,1028.5
2019-03-22T15:41:55.574Z,1028.5
2019-03-22T15:46:55.621Z,1028.6
2019-03-22T15:51:55.585Z,1028.6
2019-03-22T15:56:55.586Z,1028.6
2019-03-22T16:01:55.595Z,1028.5
2019-03-22T16:06:55.605Z,1028.5
2019-03-22T16:11:55.601Z,1028.5
2019-03-22T16:16:55.594Z,1028.6
2019-03-22T16:21:55.595Z,1028.6
2019-03-22T16:26:55.586Z,1028.6
2019-03-22T16:31:58.342Z,1028.6
2019-03-22T16:36:55.582Z,1028.6
2019-03-22T16:41:55.712Z,1028.7
2019-03-22T16:46:55.889Z,1028.7
2019-03-22T16:51:55.631Z,1028.7
2019-03-22T16:56:55.605Z,1028.7
2019-03-22T17:01:55.615Z,1028.7
2019-03-22T17:06:55.697Z,1028.7
2019-03-22T17:11:55.566Z,1028.7
2019-03-22T17:16:55.622Z,1028.7
2019-03-22T17:21:55.740Z,1028.7
2019-03-22T17:26:55.626Z,1028.7
2019-03-22T17:31:55.619Z,1028.7
2019-03-22T17:36:55.689Z,1028.8
2019-03-22T17:41:55.694Z,1028.8
2019-03-22T17:46:55.672Z,1028.9
2019-03-22T17:51:55.653Z,1028.9
2019-03-22T17:56:55.731Z,1029
2019-03-22T18:01:55.848Z,1028.9
2019-03-22T18:06:55.636Z,1029
2019-03-22T18:11:55.639Z,1029.1
2019-03-22T18:16:55.631Z,1029.2
2019-03-22T18:21:55.691Z,1029.2
2019-03-22T18:26:55.677Z,1029.2
2019-03-22T18:31:55.621Z,1029.2
2019-03-22T18:36:55.857Z,1029.2
2019-03-22T18:41:55.662Z,1029.2
2019-03-22T18:46:55.669Z,1029.3
2019-03-22T18:51:55.668Z,1029.3
2019-03-22T18:56:55.707Z,1029.3
2019-03-22T19:01:55.717Z,1029.5
2019-03-22T19:06:55.730Z,1029.5
2019-03-22T19:11:55.753Z,1029.5
2019-03-22T19:16:55.686Z,1029.5
2019-03-22T19:21:55.706Z,1029.6
2019-03-22T19:26:55.867Z,1029.5
2019-03-22T19:31:55.737Z,1029.6
2019-03-22T19:36:55.821Z,1029.7
2019-03-22T19:41:55.716Z,1029.7
2019-03-22T19:46:55.725Z,1029.7
2019-03-22T19:51:55.742Z,1029.8
2019-03-22T19:56:56.010Z,1029.7
2019-03-22T20:01:56.274Z,1029.7
2019-03-22T20:06:56.255Z,1029.6
2019-03-22T20:11:56.978Z,1029.7
2019-03-22T20:16:56.030Z,1029.7
2019-03-22T20:21:56.006Z,1029.7
2019-03-22T20:26:57.153Z,1029.8
2019-03-22T20:31:55.775Z,1029.8
2019-03-22T20:36:55.809Z,1029.7
2019-03-22T20:41:56.019Z,1029.8
2019-03-22T20:46:55.776Z,1029.9
2019-03-22T20:51:55.746Z,1029.9
2019-03-22T20:56:55.962Z,1029.9
2019-03-22T21:01:55.899Z,1030
2019-03-22T21:06:55.931Z,1030
2019-03-22T21:11:55.891Z,1030
2019-03-22T21:16:56.213Z,1030
2019-03-22T21:21:55.823Z,1030.1
2019-03-22T21:26:55.772Z,1030.1
2019-03-22T21:31:55.751Z,1030.1
2019-03-22T21:36:55.841Z,1030.1
2019-03-22T21:41:55.955Z,1030.2
2019-03-22T21:46:55.801Z,1030.2
2019-03-22T21:51:55.773Z,1030.4
2019-03-22T21:56:55.747Z,1030.3
2019-03-22T22:01:56.021Z,1030.3
2019-03-22T22:06:55.768Z,1030.4
2019-03-22T22:11:55.933Z,1030.3
2019-03-22T22:16:55.991Z,1030.3
2019-03-22T22:21:55.906Z,1030.4
2019-03-22T22:26:56.205Z,1030.5
2019-03-22T22:31:55.789Z,1030.4
2019-03-22T22:36:55.784Z,1030.4
2019-03-22T22:41:55.782Z,1030.4
2019-03-22T22:46:55.927Z,1030.5
2019-03-22T22:51:55.791Z,1030.4
2019-03-22T22:56:55.794Z,1030.4
2019-03-22T23:01:55.811Z,1030.4
2019-03-22T23:06:55.789Z,1030.5
2019-03-22T23:11:55.820Z,1030.5
2019-03-22T23:16:56.132Z,1030.6
2019-03-22T23:21:55.819Z,1030.6
2019-03-22T23:26:55.829Z,1030.5
2019-03-22T23:31:55.793Z,1030.5
2019-03-22T23:36:55.818Z,1030.6
2019-03-22T23:41:55.784Z,1030.5
2019-03-22T23:46:55.843Z,1030.6
2019-03-22T23:51:55.800Z,1030.6
2019-03-22T23:56:56.043Z,1030.6
